Time;durP1;ratioP1;P1;durP2;ratioP2;P2;SDS_P1;SDS_P2;PMS_P1;PMS_P2;Temp;Humidity;BMP_temperature;BMP_pressure;BME280_temperature;BME280_humidity;BME280_pressure;Samples;Min_cycle;Max_cycle;Signal;HPM_P1;HPM_P2
2022/11/10 00:01:59;;;;;;;6.40;2.03;;;;;;;13.21;74.77;97024.25;6275050;22;20248;-79
2022/11/10 00:04:27;;;;;;;2.58;1.45;;;;;;;13.19;75.21;97034.91;6275307;22;20023;-79
2022/11/10 00:06:54;;;;;;;3.97;2.08;;;;;;;13.16;75.20;97035.31;6275483;22;20020;-79
2022/11/10 00:09:23;;;;;;;3.25;1.83;;;;;;;13.18;75.47;97041.16;6275617;22;20050;-78
2022/11/10 00:11:51;;;;;;;5.05;1.80;;;;;;;13.19;75.84;97040.16;6277081;22;20020;-79
2022/11/10 00:17:04;;;;;;;4.50;1.90;;;;;;;13.17;75.28;97043.97;6277298;22;20020;-79
2022/11/10 00:19:32;;;;;;;4.38;1.80;;;;;;;13.16;75.52;97043.16;6276668;22;20024;-79
2022/11/10 00:22:01;;;;;;;4.85;1.92;;;;;;;13.15;75.02;97048.56;6277024;22;20027;-78
2022/11/10 00:24:30;;;;;;;3.75;1.63;;;;;;;13.13;74.96;97050.56;6277067;22;20049;-79
2022/11/10 00:26:57;;;;;;;4.28;2.10;;;;;;;13.11;74.75;97050.75;6277279;22;20077;-79
2022/11/10 00:29:25;;;;;;;2.22;1.40;;;;;;;13.10;75.06;97046.53;6276528;22;20022;-79
2022/11/10 00:31:53;;;;;;;1.50;1.40;;;;;;;13.09;75.15;97054.56;6277090;22;20028;-79
2022/11/10 00:34:20;;;;;;;3.78;1.88;;;;;;;13.09;75.00;97049.31;6277257;22;20030;-79
2022/11/10 00:36:48;;;;;;;3.63;2.05;;;;;;;13.06;74.85;97045.28;6277552;22;20043;-79
2022/11/10 00:39:15;;;;;;;3.35;2.00;;;;;;;13.04;75.03;97047.25;6277057;22;20050;-79
2022/11/10 00:41:44;;;;;;;3.78;1.73;;;;;;;13.02;74.95;97054.50;6276445;22;20495;-79
2022/11/10 00:44:12;;;;;;;4.35;1.83;;;;;;;13.01;74.94;97052.88;6276552;22;20020;-80
2022/11/10 00:46:39;;;;;;;3.70;1.85;;;;;;;13.00;74.71;97056.47;6277335;22;20028;-79
2022/11/10 00:49:07;;;;;;;4.45;2.20;;;;;;;12.98;75.32;97063.72;6276602;22;20019;-78
2022/11/10 00:51:34;;;;;;;4.03;2.40;;;;;;;12.97;74.72;97064.72;6276987;22;20019;-79
2022/11/10 00:54:02;;;;;;;4.82;2.10;;;;;;;12.95;74.94;97072.75;6276877;22;20015;-79
2022/11/10 00:56:30;;;;;;;5.07;2.25;;;;;;;12.92;74.71;97073.13;6277022;22;20073;-79
2022/11/10 00:58:58;;;;;;;6.90;2.90;;;;;;;12.92;75.22;97081.00;6276626;22;20020;-78
2022/11/10 01:01:26;;;;;;;3.88;2.25;;;;;;;12.92;75.06;97081.00;6276978;22;20026;-79
2022/11/10 01:03:55;;;;;;;5.47;2.47;;;;;;;12.92;74.97;97082.78;6276939;22;20495;-79
2022/11/10 01:06:22;;;;;;;4.90;2.42;;;;;;;12.93;75.43;97094.88;6278456;22;20511;-80
2022/11/10 01:08:50;;;;;;;5.22;2.22;;;;;;;12.93;75.14;97093.06;6279566;22;20099;-80
2022/11/10 01:11:20;;;;;;;5.10;2.40;;;;;;;12.93;76.28;97095.69;6277585;22;20026;-79
2022/11/10 01:13:50;;;;;;;5.07;2.20;;;;;;;12.94;75.80;97096.50;6276984;22;20019;-78
2022/11/10 01:16:20;;;;;;;3.97;2.10;;;;;;;12.93;75.60;97094.88;6276854;22;20020;-79
2022/11/10 01:18:49;;;;;;;5.65;2.38;;;;;;;12.93;75.86;97092.25;6276099;22;20459;-79
2022/11/10 01:21:17;;;;;;;5.00;2.50;;;;;;;12.92;75.37;97090.63;6276270;22;20352;-78
2022/11/10 01:23:45;;;;;;;3.95;2.13;;;;;;;12.91;75.63;97089.03;6275957;22;20016;-78
2022/11/10 01:26:13;;;;;;;2.70;2.20;;;;;;;12.90;75.77;97095.22;6276912;22;20024;-79
2022/11/10 01:28:41;;;;;;;4.85;2.50;;;;;;;12.89;75.42;97096.25;6278422;22;20026;-78
2022/11/10 01:31:16;;;;;;;5.85;2.28;;;;;;;12.87;75.84;97101.66;6278454;22;20020;-79
2022/11/10 01:33:45;;;;;;;3.75;2.30;;;;;;;12.88;76.13;97103.28;6276439;22;20023;-79
2022/11/10 01:36:13;;;;;;;4.57;2.42;;;;;;;12.87;75.32;97113.94;6276644;22;20024;-79
2022/11/10 01:38:42;;;;;;;3.63;2.40;;;;;;;12.85;75.68;97123.78;6276645;22;20035;-79
2022/11/10 01:41:11;;;;;;;5.40;2.60;;;;;;;12.85;75.95;97115.94;6276075;22;20024;-78
2022/11/10 01:43:40;;;;;;;4.15;2.83;;;;;;;12.86;75.95;97122.81;6276458;22;20020;-79
2022/11/10 01:46:09;;;;;;;5.15;2.80;;;;;;;12.86;76.45;97122.81;6276518;22;20344;-79
2022/11/10 01:48:42;;;;;;;7.28;3.45;;;;;;;12.85;76.80;97116.72;6275982;22;20042;-79
2022/11/10 01:51:17;;;;;;;2.22;2.03;;;;;;;12.85;76.47;97126.41;6275925;22;20022;-79
2022/11/10 01:53:49;;;;;;;5.10;2.72;;;;;;;12.84;76.73;97125.59;6276485;22;20099;-79
2022/11/10 01:56:17;;;;;;;3.72;2.80;;;;;;;12.83;77.03;97128.38;6276512;22;20020;-79
2022/11/10 01:58:48;;;;;;;3.28;2.22;;;;;;;12.84;76.54;97132.66;6276318;22;20022;-79
2022/11/10 02:01:16;;;;;;;3.67;2.60;;;;;;;12.83;76.31;97138.88;6276450;22;20019;-79
2022/11/10 02:03:49;;;;;;;4.10;2.15;;;;;;;12.83;77.04;97138.88;6276060;22;20065;-79
2022/11/10 02:06:19;;;;;;;;;;;;;;;12.86;76.65;97138.50;6277324;22;20343;-78
2022/11/10 02:08:47;;;;;;;4.43;3.40;;;;;;;12.84;76.77;97150.97;6276157;22;19915;-79
2022/11/10 02:11:15;;;;;;;5.65;3.00;;;;;;;12.82;76.45;97143.28;6275549;22;20022;-79
2022/11/10 02:13:43;;;;;;;4.68;2.95;;;;;;;12.82;76.98;97142.50;6275815;22;20020;-79
2022/11/10 02:16:11;;;;;;;4.85;3.40;;;;;;;12.81;76.54;97144.28;6275990;22;20023;-79
2022/11/10 02:18:41;;;;;;;6.40;3.15;;;;;;;12.78;75.93;97150.69;6275754;22;20024;-78
2022/11/10 02:21:10;;;;;;;6.70;3.80;;;;;;;12.77;77.12;97151.69;6276291;22;20026;-79
2022/11/10 02:23:49;;;;;;;5.13;2.78;;;;;;;12.78;77.17;97150.69;6276004;22;20344;-79
2022/11/10 02:26:20;;;;;;;5.13;3.22;;;;;;;12.76;76.14;97147.44;6275596;22;20030;-79
2022/11/10 02:28:48;;;;;;;4.43;3.80;;;;;;;12.78;77.03;97152.50;6275648;22;20020;-79
2022/11/10 02:31:16;;;;;;;7.80;3.03;;;;;;;12.80;76.92;97155.75;6275687;22;20020;-79
2022/11/10 02:33:43;;;;;;;6.35;3.10;;;;;;;12.78;77.14;97150.69;6275487;22;20095;-79
2022/11/10 02:36:15;;;;;;;4.03;2.97;;;;;;;12.78;76.18;97158.53;6275868;22;20538;-79
2022/11/10 02:38:43;;;;;;;9.02;3.70;;;;;;;12.78;76.05;97149.88;6275575;22;20098;-79
2022/11/10 02:41:11;;;;;;;5.25;3.33;;;;;;;12.75;76.71;97153.69;6275881;22;20016;-79
2022/11/10 02:43:39;;;;;;;4.72;3.22;;;;;;;12.74;76.52;97154.66;6276230;22;20019;-79
2022/11/10 02:46:07;;;;;;;5.85;3.00;;;;;;;12.74;75.92;97159.09;6275437;22;20098;-79
2022/11/10 02:48:34;;;;;;;7.68;3.38;;;;;;;12.72;75.57;97164.50;6275502;22;20019;-79
2022/11/10 02:51:02;;;;;;;3.80;3.10;;;;;;;12.69;75.79;97159.63;6275311;22;20498;-79
2022/11/10 02:53:30;;;;;;;6.63;3.22;;;;;;;12.68;75.82;97171.13;6275866;22;20023;-79
2022/11/10 02:55:59;;;;;;;8.63;3.67;;;;;;;12.65;75.85;97173.28;6275764;22;20027;-79
2022/11/10 02:58:26;;;;;;;5.28;3.28;;;;;;;12.64;76.17;97187.34;6275171;22;20094;-79
2022/11/10 03:00:54;;;;;;;6.57;3.90;;;;;;;12.61;75.69;97193.75;6275470;22;20490;-79
2022/11/10 03:03:21;;;;;;;5.75;3.13;;;;;;;12.58;76.17;97191.50;6275781;22;20347;-79
2022/11/10 03:05:49;;;;;;;4.80;3.35;;;;;;;12.57;76.27;97201.16;6275693;22;20142;-79
2022/11/10 03:08:17;;;;;;;5.22;3.47;;;;;;;12.59;76.57;97211.44;6275321;22;20019;-79
2022/11/10 03:10:46;;;;;;;7.35;3.63;;;;;;;12.60;76.85;97215.69;6275608;22;20020;-79
2022/11/10 03:13:13;;;;;;;5.78;3.67;;;;;;;12.61;76.79;97222.53;6277081;22;20024;-80
2022/11/10 03:15:41;;;;;;;4.20;3.40;;;;;;;12.62;77.42;97223.38;6277268;22;20030;-79
2022/11/10 03:18:08;;;;;;;6.07;3.67;;;;;;;12.64;77.46;97227.44;6275065;22;20016;-80
2022/11/10 03:20:36;;;;;;;7.38;3.58;;;;;;;12.62;76.44;97229.41;6275842;22;20138;-80
2022/11/10 03:23:04;;;;;;;5.20;3.05;;;;;;;12.61;76.60;97224.34;6275596;22;20024;-79
2022/11/10 03:25:33;;;;;;;4.85;3.38;;;;;;;12.62;77.64;97232.03;6276509;22;20007;-79
2022/11/10 03:28:02;;;;;;;3.20;2.90;;;;;;;12.55;77.81;97231.09;6274370;22;20055;-79
2022/11/10 03:30:29;;;;;;;5.75;3.75;;;;;;;12.41;78.11;97224.84;6275110;22;20026;-80
2022/11/10 03:32:57;;;;;;;5.63;3.47;;;;;;;12.31;78.57;97242.59;6276641;22;20043;-79
2022/11/10 03:35:24;;;;;;;6.40;3.95;;;;;;;12.26;79.07;97250.97;6275789;22;20015;-79
2022/11/10 03:37:52;;;;;;;5.88;4.10;;;;;;;12.21;78.47;97245.47;6275219;22;20026;-79
2022/11/10 03:40:19;;;;;;;9.32;4.60;;;;;;;12.14;78.35;97239.31;6275384;22;20467;-79
2022/11/10 03:42:47;;;;;;;7.03;3.65;;;;;;;12.11;79.59;97245.72;6275542;22;20355;-79
2022/11/10 03:45:16;;;;;;;5.78;3.88;;;;;;;12.07;80.07;97243.59;6275676;22;20023;-78
2022/11/10 03:47:45;;;;;;;6.68;4.95;;;;;;;12.02;79.99;97251.97;6275318;22;20020;-78
2022/11/10 03:50:13;;;;;;;5.95;4.55;;;;;;;11.99;80.37;97256.75;6273358;22;20024;-80
2022/11/10 03:52:43;;;;;;;6.07;4.43;;;;;;;11.96;80.00;97265.78;6273383;22;20016;-79
2022/11/10 03:55:12;;;;;;;6.43;4.15;;;;;;;11.98;80.25;97265.56;6273598;22;20023;-79
2022/11/10 03:57:39;;;;;;;10.60;4.43;;;;;;;11.97;80.51;97264.78;6273484;22;20026;-79
2022/11/10 04:00:09;;;;;;;8.20;4.72;;;;;;;11.95;81.18;97270.16;6278347;22;20024;-80
2022/11/10 04:02:38;;;;;;;7.15;4.90;;;;;;;11.94;81.07;97273.78;6280846;22;20031;-80
2022/11/10 04:10:42;;;;;;;9.30;4.68;;;;;;;11.92;79.60;97283.59;6275197;22;20026;-79
2022/11/10 04:15:56;;;;;;;5.93;4.65;;;;;;;11.88;80.24;97282.31;6275502;22;20030;-79
2022/11/10 04:18:25;;;;;;;7.45;4.80;;;;;;;11.87;80.99;97291.13;6275177;22;20024;-79
2022/11/10 04:20:54;;;;;;;10.35;4.60;;;;;;;11.88;80.85;97289.34;6275083;22;20019;-79
2022/11/10 04:23:29;;;;;;;7.03;4.97;;;;;;;11.88;80.39;97298.00;6275367;22;20019;-79
2022/11/10 04:28:47;;;;;;;8.45;5.45;;;;;;;11.95;81.05;97298.13;6275051;22;20386;-79
2022/11/10 04:31:15;;;;;;;6.78;5.47;;;;;;;11.98;81.58;97304.78;6274955;22;20505;-79
2022/11/10 04:33:45;;;;;;;14.15;5.80;;;;;;;11.98;80.22;97307.41;6275283;22;20024;-79
2022/11/10 04:36:16;;;;;;;8.88;5.35;;;;;;;11.97;80.29;97311.03;6275504;22;20020;-79
2022/11/10 04:38:44;;;;;;;9.25;6.15;;;;;;;11.94;81.22;97302.53;6274653;22;20031;-79
2022/11/10 04:41:12;;;;;;;8.32;5.55;;;;;;;11.90;80.57;97310.91;6274944;22;20024;-79
2022/11/10 04:43:40;;;;;;;10.77;5.82;;;;;;;11.86;80.44;97318.22;6275310;22;20022;-78
2022/11/10 04:46:19;;;;;;;9.10;5.50;;;;;;;11.85;81.35;97319.25;6275186;22;20031;-79
2022/11/10 04:48:48;;;;;;;9.20;5.97;;;;;;;11.82;81.11;97319.56;6274876;22;20020;-79
2022/11/10 04:51:17;;;;;;;9.13;5.45;;;;;;;11.81;80.52;97328.41;6275328;22;20019;-79
2022/11/10 04:53:44;;;;;;;7.22;6.15;;;;;;;11.81;80.83;97338.84;6274972;22;20475;-79
2022/11/10 04:56:14;;;;;;;8.00;5.65;;;;;;;11.78;81.53;97343.59;6277294;22;20328;-80
2022/11/10 04:58:42;;;;;;;8.20;5.78;;;;;;;11.71;81.40;97352.13;6283426;22;20016;-79
2022/11/10 05:01:12;;;;;;;11.48;5.95;;;;;;;11.68;81.70;97357.69;6276971;22;20027;-79
2022/11/10 05:03:40;;;;;;;6.63;5.30;;;;;;;11.67;80.79;97368.31;6276995;22;20398;-79
2022/11/10 05:06:11;;;;;;;11.02;6.10;;;;;;;11.66;80.64;97366.69;6276426;22;20451;-79
2022/11/10 05:08:39;;;;;;;10.10;7.38;;;;;;;11.63;80.14;97362.63;6275688;22;20031;-79
2022/11/10 05:11:07;;;;;;;7.47;5.90;;;;;;;11.64;79.88;97355.59;6276360;22;20498;-79
2022/11/10 05:13:35;;;;;;;9.35;6.40;;;;;;;11.66;80.88;97348.41;6276070;22;20074;-79
2022/11/10 05:16:03;;;;;;;14.50;7.72;;;;;;;11.70;81.06;97347.09;6276631;22;20482;-78
2022/11/10 05:18:31;;;;;;;12.88;7.95;;;;;;;11.70;80.45;97344.47;6275743;22;20015;-79
2022/11/10 05:20:58;;;;;;;9.70;7.72;;;;;;;11.67;79.96;97347.41;6276384;22;20016;-78
2022/11/10 05:23:40;;;;;;;11.85;6.38;;;;;;;11.65;80.21;97360.63;6276647;22;20026;-78
2022/11/10 05:26:10;;;;;;;9.02;6.68;;;;;;;11.63;80.61;97380.09;6276536;22;20015;-78
2022/11/10 05:28:38;;;;;;;9.90;6.85;;;;;;;11.62;80.17;97384.50;6276251;22;20110;-80
2022/11/10 05:31:06;;;;;;;9.00;6.95;;;;;;;11.66;81.47;97398.06;6275703;22;20027;-77
2022/11/10 05:33:36;;;;;;;9.00;7.03;;;;;;;11.66;81.82;97400.66;6276706;22;20020;-80
2022/11/10 05:36:05;;;;;;;9.48;7.50;;;;;;;11.65;81.33;97409.47;6276550;22;20050;-78
2022/11/10 05:38:35;;;;;;;9.85;6.93;;;;;;;11.65;81.63;97412.09;6276009;22;20475;-78
2022/11/10 05:41:09;;;;;;;7.55;6.40;;;;;;;11.62;81.13;97417.66;6276537;22;20029;-78
2022/11/10 05:43:37;;;;;;;8.45;7.25;;;;;;;11.59;81.68;97413.59;6275335;22;20019;-78
2022/11/10 05:46:05;;;;;;;13.15;7.60;;;;;;;11.57;81.54;97417.34;6276593;22;20046;-78
2022/11/10 05:48:33;;;;;;;15.43;8.43;;;;;;;11.47;80.27;97415.72;6276317;22;20026;-78
2022/11/10 05:51:00;;;;;;;10.18;7.20;;;;;;;11.43;80.99;97422.28;6276384;22;20031;-77
2022/11/10 05:53:28;;;;;;;12.13;7.68;;;;;;;11.38;80.36;97421.97;6275777;22;20038;-77
2022/11/10 05:55:57;;;;;;;9.90;7.53;;;;;;;11.35;81.64;97424.91;6276038;22;20019;-77
2022/11/10 05:58:25;;;;;;;8.30;6.95;;;;;;;11.34;82.21;97431.13;6275289;22;20019;-77
2022/11/10 06:00:52;;;;;;;14.07;7.45;;;;;;;11.36;82.14;97438.78;6276375;22;20019;-77
2022/11/10 06:03:20;;;;;;;11.23;7.57;;;;;;;11.40;83.22;97446.13;6275739;22;20081;-78
2022/11/10 06:05:48;;;;;;;15.05;6.88;;;;;;;11.35;80.83;97437.97;6276451;22;20015;-77
2022/11/10 06:08:16;;;;;;;44.67;26.85;;;;;;;11.27;80.00;97432.75;6273855;22;20299;-77
2022/11/10 06:10:45;;;;;;;9.85;7.45;;;;;;;11.20;79.40;97434.41;6273614;22;20102;-77
2022/11/10 06:13:14;;;;;;;12.13;6.82;;;;;;;11.11;79.02;97436.22;6274066;22;20125;-76
2022/11/10 06:15:41;;;;;;;10.88;7.97;;;;;;;11.04;78.99;97437.81;6273937;22;20020;-77
2022/11/10 06:18:16;;;;;;;17.33;8.43;;;;;;;10.95;78.86;97447.47;6273951;22;20027;-76
2022/11/10 06:20:45;;;;;;;11.50;7.57;;;;;;;10.88;79.01;97451.72;6273279;22;20472;-77
2022/11/10 06:23:14;;;;;;;13.63;8.05;;;;;;;10.85;79.11;97459.88;6275448;22;20027;-77
2022/11/10 06:25:43;;;;;;;11.45;8.50;;;;;;;10.84;78.76;97460.84;6276120;22;20027;-77
2022/11/10 06:28:11;;;;;;;12.98;7.72;;;;;;;10.82;78.64;97462.78;6276200;22;20102;-76
2022/11/10 06:30:40;;;;;;;13.05;7.43;;;;;;;10.84;79.84;97477.31;6275680;22;20102;-77
2022/11/10 06:33:08;;;;;;;11.05;7.07;;;;;;;10.88;79.51;97489.06;6275998;22;20030;-77
2022/11/10 06:35:36;;;;;;;9.10;6.85;;;;;;;10.94;80.63;97487.59;6275867;22;20102;-76
2022/11/10 06:38:05;;;;;;;8.02;7.07;;;;;;;11.02;81.82;97498.06;6276066;22;20026;-76
2022/11/10 06:40:33;;;;;;;8.10;6.90;;;;;;;11.08;81.69;97504.41;6276267;22;20019;-77
2022/11/10 06:43:01;;;;;;;9.82;7.15;;;;;;;11.09;81.62;97506.06;6275971;22;20035;-77
2022/11/10 06:45:29;;;;;;;10.05;6.25;;;;;;;11.09;80.37;97519.13;6275960;22;20020;-76
2022/11/10 06:48:02;;;;;;;8.32;6.68;;;;;;;11.11;82.69;97519.78;6275682;22;20037;-76
2022/11/10 06:50:29;;;;;;;7.32;6.20;;;;;;;11.16;82.36;97525.31;6276248;22;20339;-77
2022/11/10 06:52:58;;;;;;;12.40;6.93;;;;;;;11.16;82.20;97532.34;6283170;22;20026;-77
2022/11/10 06:55:26;;;;;;;8.88;6.07;;;;;;;11.17;81.21;97539.19;6290716;22;20118;-77
2022/11/10 06:57:53;;;;;;;9.77;6.82;;;;;;;11.21;82.27;97541.31;6282321;22;20019;-76
2022/11/10 07:00:21;;;;;;;12.98;7.03;;;;;;;11.25;81.60;97553.06;6276439;22;20463;-77
2022/11/10 07:02:58;;;;;;;10.50;6.30;;;;;;;11.29;82.82;97554.38;6275798;22;20022;-77
2022/11/10 07:05:27;;;;;;;9.20;6.15;;;;;;;11.29;81.82;97572.66;6275798;22;20023;-77
2022/11/10 07:07:55;;;;;;;8.65;5.50;;;;;;;11.30;81.83;97574.31;6275412;22;20351;-77
2022/11/10 07:10:22;;;;;;;13.18;6.32;;;;;;;11.29;80.59;97567.44;6275510;22;20019;-77
2022/11/10 07:12:55;;;;;;;8.55;5.93;;;;;;;11.26;78.96;97580.81;6275821;22;20019;-77
2022/11/10 07:15:23;;;;;;;7.57;5.15;;;;;;;11.24;79.29;97581.94;6275889;22;20016;-77
2022/11/10 07:17:50;;;;;;;9.10;5.35;;;;;;;11.29;80.17;97583.09;6275341;22;20027;-77
2022/11/10 07:20:18;;;;;;;7.88;5.68;;;;;;;11.35;80.76;97584.25;6275051;22;20027;-77
2022/11/10 07:22:47;;;;;;;11.00;6.85;;;;;;;11.40;81.11;97587.19;6275989;22;20027;-77
2022/11/10 07:25:15;;;;;;;8.48;5.53;;;;;;;11.41;81.13;97585.41;6275342;22;20027;-77
2022/11/10 07:27:42;;;;;;;9.77;5.75;;;;;;;11.37;79.91;97591.91;6275803;22;20019;-76
2022/11/10 07:30:11;;;;;;;56.63;10.43;;;;;;;11.36;80.11;97612.00;6291781;22;20103;-77
2022/11/10 07:32:38;;;;;;;54.83;9.98;;;;;;;11.35;79.53;97602.56;6295507;22;20024;-77
2022/11/10 07:35:06;;;;;;;46.55;10.55;;;;;;;11.38;79.06;97607.44;6290299;22;20024;-77
2022/11/10 07:37:34;;;;;;;33.95;8.52;;;;;;;11.37;78.97;97605.81;6275847;22;20016;-77
2022/11/10 07:40:03;;;;;;;19.63;7.25;;;;;;;11.39;78.79;97605.63;6275115;22;20069;-77
2022/11/10 07:42:31;;;;;;;16.63;7.38;;;;;;;11.43;78.81;97612.97;6275956;22;20020;-76
2022/11/10 07:44:58;;;;;;;11.45;5.93;;;;;;;11.49;78.54;97612.34;6275937;22;20073;-76
2022/11/10 07:47:26;;;;;;;7.10;4.95;;;;;;;11.58;78.85;97626.22;6275369;22;20538;-77
2022/11/10 07:49:53;;;;;;;6.32;4.60;;;;;;;11.66;79.75;97628.84;6275350;22;20024;-77
2022/11/10 07:52:21;;;;;;;5.03;4.18;;;;;;;11.72;79.46;97635.25;6276067;22;20026;-77
2022/11/10 07:54:48;;;;;;;9.05;5.60;;;;;;;11.77;78.91;97634.75;6275587;22;20355;-77
2022/11/10 07:57:17;;;;;;;8.98;4.38;;;;;;;11.84;77.75;97640.94;6275538;22;20448;-77
2022/11/10 07:59:45;;;;;;;10.18;4.80;;;;;;;11.91;79.08;97640.13;6274543;22;20472;-77
2022/11/10 08:02:12;;;;;;;7.47;4.25;;;;;;;11.94;78.94;97642.44;6275582;22;20042;-77
2022/11/10 08:04:40;;;;;;;8.13;5.35;;;;;;;12.04;79.79;97636.22;6275084;22;20493;-77
2022/11/10 08:07:07;;;;;;;8.25;5.35;;;;;;;12.12;78.07;97636.22;6275610;22;20032;-77
2022/11/10 08:09:35;;;;;;;8.93;5.07;;;;;;;12.20;77.87;97641.44;6275382;22;20023;-77
2022/11/10 08:12:04;;;;;;;8.38;4.93;;;;;;;12.28;78.15;97651.88;6275583;22;20026;-77
2022/11/10 08:14:32;;;;;;;6.90;4.18;;;;;;;12.35;78.71;97662.47;6275499;22;20414;-77
2022/11/10 08:17:00;;;;;;;12.23;5.45;;;;;;;12.37;78.17;97660.50;6274983;22;20026;-77
2022/11/10 08:19:28;;;;;;;13.05;5.15;;;;;;;12.39;78.80;97669.00;6274900;22;20027;-77
2022/11/10 08:21:55;;;;;;;8.65;5.03;;;;;;;12.43;78.49;97672.13;6275815;22;20054;-77
2022/11/10 08:24:23;;;;;;;8.80;4.90;;;;;;;12.43;77.86;97667.69;6275423;22;20074;-76
2022/11/10 08:26:50;;;;;;;6.57;4.13;;;;;;;12.45;77.17;97676.19;6275243;22;20020;-77
2022/11/10 08:29:18;;;;;;;8.90;4.75;;;;;;;12.48;76.63;97669.81;6274869;22;20046;-77
2022/11/10 08:31:47;;;;;;;10.45;4.88;;;;;;;12.50;77.83;97679.13;6277205;22;20020;-77
2022/11/10 08:34:14;;;;;;;9.07;4.43;;;;;;;12.56;77.54;97680.28;6277493;22;20028;-77
2022/11/10 08:36:43;;;;;;;9.27;4.47;;;;;;;12.62;77.32;97678.78;6277117;22;20070;-77
2022/11/10 08:39:11;;;;;;;8.48;4.18;;;;;;;12.65;76.45;97683.69;6276706;22;20030;-77
2022/11/10 08:41:43;;;;;;;4.43;3.38;;;;;;;12.63;75.81;97686.47;6277279;22;20027;-77
2022/11/10 08:44:12;;;;;;;9.13;3.38;;;;;;;12.62;75.00;97702.34;6277406;22;20043;-77
2022/11/10 08:46:47;;;;;;;4.78;3.40;;;;;;;12.73;75.37;97696.75;6277538;22;20020;-77
2022/11/10 08:49:14;;;;;;;8.20;3.35;;;;;;;12.86;75.02;97709.31;6277011;22;20030;-77
2022/11/10 08:51:42;;;;;;;7.18;3.85;;;;;;;12.94;73.84;97706.66;6277043;22;20026;-77
2022/11/10 08:54:10;;;;;;;8.85;4.22;;;;;;;13.16;73.44;97715.56;6276812;22;20069;-77
2022/11/10 08:56:37;;;;;;;7.13;4.00;;;;;;;13.73;71.86;97706.59;6276786;22;20019;-77
2022/11/10 08:59:05;;;;;;;6.95;4.47;;;;;;;14.34;69.83;97709.22;6276953;22;20257;-77
2022/11/10 09:01:33;;;;;;;6.50;3.10;;;;;;;15.83;64.37;97704.69;6276847;22;20026;-77
2022/11/10 09:04:01;;;;;;;4.20;2.92;;;;;;;17.74;59.55;97713.13;6277042;22;20359;-77
2022/11/10 09:06:29;;;;;;;4.82;2.60;;;;;;;19.33;55.39;97701.63;6276665;22;20026;-77
2022/11/10 09:08:57;;;;;;;4.90;2.33;;;;;;;20.03;50.75;97700.84;6276615;22;20102;-77
2022/11/10 09:11:24;;;;;;;6.32;2.70;;;;;;;19.98;51.06;97702.50;6276953;22;20024;-77
2022/11/10 09:13:52;;;;;;;3.17;2.08;;;;;;;20.82;50.46;97705.69;6276492;22;20024;-77
2022/11/10 09:16:19;;;;;;;4.82;2.17;;;;;;;20.97;48.72;97706.94;6276809;22;20019;-77
2022/11/10 09:18:47;;;;;;;5.30;2.30;;;;;;;20.70;49.25;97711.69;6276405;22;20073;-77
2022/11/10 09:21:16;;;;;;;6.05;1.95;;;;;;;20.74;49.04;97723.47;6276923;22;20062;-78
2022/11/10 09:23:44;;;;;;;6.28;1.88;;;;;;;20.85;50.06;97729.91;6276470;22;20482;-77
2022/11/10 09:26:11;;;;;;;4.03;1.95;;;;;;;21.56;48.24;97738.31;6276769;22;20030;-77
2022/11/10 09:28:39;;;;;;;5.97;2.38;;;;;;;22.59;43.40;97745.19;6276648;22;20020;-78
2022/11/10 09:31:07;;;;;;;4.85;1.70;;;;;;;23.06;42.55;97748.88;6276395;22;20027;-77
2022/11/10 09:33:34;;;;;;;3.97;2.00;;;;;;;22.99;43.42;97752.44;6276281;22;20467;-77
2022/11/10 09:36:02;;;;;;;4.38;1.73;;;;;;;23.48;40.44;97754.81;6276385;22;20023;-77
2022/11/10 09:38:31;;;;;;;9.25;2.70;;;;;;;23.12;41.46;97754.09;6276561;22;20019;-77
2022/11/10 09:41:01;;;;;;;35.90;6.38;;;;;;;23.18;41.93;97768.31;6276297;22;20031;-77
2022/11/10 09:43:35;;;;;;;150.50;25.42;;;;;;;23.95;39.36;97767.19;6276549;22;20032;-78
2022/11/10 09:46:09;;;;;;;119.30;21.45;;;;;;;23.87;38.28;97770.22;6278861;22;20351;-78
2022/11/10 09:48:44;;;;;;;56.75;11.50;;;;;;;24.34;38.83;97775.31;6279841;22;20089;-78
2022/11/10 09:51:17;;;;;;;7.57;3.30;;;;;;;25.04;36.75;97769.47;6280261;22;20019;-78
2022/11/10 09:53:50;;;;;;;5.10;1.98;;;;;;;25.41;35.86;97773.44;6279643;22;20102;-78
2022/11/10 09:56:21;;;;;;;4.72;1.77;;;;;;;24.98;35.90;97781.13;6280023;22;20020;-78
2022/11/10 09:58:49;;;;;;;4.35;1.80;;;;;;;24.19;37.63;97789.19;6279042;22;20471;-78
2022/11/10 10:01:30;;;;;;;3.55;1.48;;;;;;;23.27;38.21;97776.75;6278945;22;20023;-78
2022/11/10 10:04:10;;;;;;;3.30;1.60;;;;;;;23.31;38.84;97784.03;6279765;22;20099;-78
2022/11/10 10:06:44;;;;;;;4.70;1.73;;;;;;;23.74;37.13;97789.94;6279245;22;20023;-78
2022/11/10 10:09:44;;;;;;;4.45;1.70;;;;;;;24.28;37.50;97793.06;6278776;22;20027;-78
2022/11/10 10:12:24;;;;;;;5.63;2.15;;;;;;;24.60;35.89;97804.03;6279335;22;20024;-78
2022/11/10 10:15:02;;;;;;;3.10;1.75;;;;;;;25.07;35.20;97803.66;6279190;22;20024;-78
2022/11/10 10:17:39;;;;;;;5.57;2.47;;;;;;;26.10;33.50;97818.31;6276793;22;20073;-76
2022/11/10 10:20:17;;;;;;;5.35;2.40;;;;;;;27.06;31.85;97817.53;6275928;22;20098;-76
2022/11/10 10:23:01;;;;;;;2.50;2.05;;;;;;;27.87;29.85;97813.66;6276202;22;20019;-77
2022/11/10 10:25:32;;;;;;;3.13;1.40;;;;;;;28.46;30.63;97816.97;6276188;22;20031;-77
2022/11/10 10:28:06;;;;;;;3.90;2.08;;;;;;;28.89;28.65;97826.38;6275879;22;20026;-77
2022/11/10 10:30:34;;;;;;;63.78;12.05;;;;;;;29.21;28.76;97821.78;6276328;22;20062;-77
2022/11/10 10:33:13;;;;;;;57.08;9.88;;;;;;;29.52;29.42;97820.63;6275829;22;20020;-76
2022/11/10 10:35:42;;;;;;;35.92;5.15;;;;;;;29.90;27.06;97821.00;6276114;22;20043;-77
2022/11/10 10:38:21;;;;;;;37.28;6.97;;;;;;;29.97;26.19;97816.13;6275143;22;20098;-77
2022/11/10 10:40:52;;;;;;;4.22;1.73;;;;;;;29.55;26.56;97813.88;6275973;22;20098;-77
2022/11/10 10:43:20;;;;;;;4.70;1.38;;;;;;;28.41;28.12;97822.34;6276293;22;20026;-77
2022/11/10 10:46:03;;;;;;;4.65;1.48;;;;;;;27.62;29.50;97813.56;6275949;22;20020;-76
2022/11/10 10:48:31;;;;;;;4.38;2.60;;;;;;;27.24;29.89;97826.22;6275440;22;20276;-77
2022/11/10 10:50:58;;;;;;;5.65;1.85;;;;;;;26.84;30.51;97814.16;6275364;22;20026;-77
2022/11/10 10:53:26;;;;;;;7.22;2.35;;;;;;;25.74;31.70;97809.91;6275359;22;20024;-77
2022/11/10 10:55:59;;;;;;;6.32;2.17;;;;;;;25.19;32.49;97810.75;6276146;22;20020;-77
2022/11/10 10:58:29;;;;;;;2.75;1.15;;;;;;;24.98;32.69;97807.81;6275495;22;20016;-76
2022/11/10 11:01:04;;;;;;;4.53;1.23;;;;;;;24.59;34.01;97809.63;6275436;22;20024;-77
2022/11/10 11:03:41;;;;;;;1.45;0.80;;;;;;;24.04;37.05;97809.19;6275613;22;20016;-77
2022/11/10 11:06:19;;;;;;;1.33;0.80;;;;;;;23.32;36.03;97812.25;6275459;22;20031;-77
2022/11/10 11:08:55;;;;;;;3.88;1.13;;;;;;;22.66;38.45;97810.75;6275237;22;20027;-77
2022/11/10 11:11:29;;;;;;;1.58;0.90;;;;;;;22.11;38.23;97811.75;6275544;22;20023;-77
2022/11/10 11:14:20;;;;;;;6.13;2.30;;;;;;;21.76;40.13;97805.25;6275736;22;20019;-77
2022/11/10 11:16:50;;;;;;;5.25;1.95;;;;;;;21.67;40.31;97792.50;6278238;22;20098;-77
2022/11/10 11:19:20;;;;;;;6.30;2.05;;;;;;;21.66;40.14;97788.22;6275197;22;20483;-77
2022/11/10 11:22:24;;;;;;;3.45;1.38;;;;;;;21.78;40.52;97789.91;6275313;22;20023;-76
2022/11/10 11:24:57;;;;;;;4.07;1.77;;;;;;;21.81;40.26;97791.31;6276088;22;20028;-79
2022/11/10 11:27:34;;;;;;;2.67;1.20;;;;;;;21.75;41.11;97793.00;6276158;22;20019;-77
2022/11/10 11:30:05;;;;;;;3.45;1.17;;;;;;;21.79;41.07;97794.16;6277683;22;20047;-77
2022/11/10 11:33:04;;;;;;;3.03;1.02;;;;;;;21.73;39.47;97797.72;6279136;22;20024;-77
2022/11/10 11:35:41;;;;;;;2.40;1.08;;;;;;;21.71;39.89;97791.84;6283841;22;20022;-79
2022/11/10 11:38:13;;;;;;;2.47;1.13;;;;;;;21.77;41.09;97795.44;6279507;22;20022;-77
2022/11/10 11:40:48;;;;;;;2.03;1.00;;;;;;;21.73;42.05;97795.06;6275618;22;20023;-77
2022/11/10 11:43:35;;;;;;;3.70;1.23;;;;;;;21.77;40.18;97792.78;6275686;22;20074;-77
2022/11/10 11:46:11;;;;;;;4.32;1.48;;;;;;;21.75;39.14;97792.19;6275406;22;20019;-77
2022/11/10 11:48:49;;;;;;;2.67;0.90;;;;;;;21.55;41.23;97797.75;6275113;22;20095;-77
2022/11/10 11:51:22;;;;;;;6.15;1.38;;;;;;;21.46;41.84;97788.47;6275813;22;20019;-77
2022/11/10 11:54:06;;;;;;;3.08;0.63;;;;;;;21.38;40.89;97793.03;6275482;22;20030;-77
2022/11/10 11:56:39;;;;;;;1.92;0.75;;;;;;;21.39;40.45;97788.53;6275209;22;20031;-77
2022/11/10 11:59:23;;;;;;;3.17;1.20;;;;;;;21.35;40.87;97790.78;6274565;22;20031;-77